sensor_id;sensor_type;location;lat;lon;timestamp;P1;durP1;ratioP1;P2;durP2;ratioP2
31282;SDS011;17915;52.540;13.604;2022-11-09T00:01:24;3.47;;;3.17;;
31282;SDS011;17915;52.540;13.604;2022-11-09T00:03:54;3.28;;;2.97;;
31282;SDS011;17915;52.540;13.604;2022-11-09T00:06:23;3.45;;;2.97;;
31282;SDS011;17915;52.540;13.604;2022-11-09T00:08:49;6.47;;;3.40;;
31282;SDS011;17915;52.540;13.604;2022-11-09T00:11:15;5.90;;;2.93;;
31282;SDS011;17915;52.540;13.604;2022-11-09T00:13:41;3.70;;;3.40;;
31282;SDS011;17915;52.540;13.604;2022-11-09T00:16:08;3.97;;;3.58;;
31282;SDS011;17915;52.540;13.604;2022-11-09T00:18:35;4.63;;;3.30;;
31282;SDS011;17915;52.540;13.604;2022-11-09T00:21:07;4.78;;;2.58;;
31282;SDS011;17915;52.540;13.604;2022-11-09T00:23:34;3.95;;;2.67;;
31282;SDS011;17915;52.540;13.604;2022-11-09T00:26:03;3.78;;;3.58;;
31282;SDS011;17915;52.540;13.604;2022-11-09T00:28:30;3.50;;;3.15;;
31282;SDS011;17915;52.540;13.604;2022-11-09T00:31:05;2.83;;;2.60;;
31282;SDS011;17915;52.540;13.604;2022-11-09T00:33:32;7.72;;;2.80;;
31282;SDS011;17915;52.540;13.604;2022-11-09T00:35:58;5.80;;;3.67;;
31282;SDS011;17915;52.540;13.604;2022-11-09T00:38:23;2.30;;;2.10;;
31282;SDS011;17915;52.540;13.604;2022-11-09T00:40:48;3.50;;;2.87;;
31282;SDS011;17915;52.540;13.604;2022-11-09T00:43:14;7.23;;;2.70;;
31282;SDS011;17915;52.540;13.604;2022-11-09T00:45:40;2.10;;;1.95;;
31282;SDS011;17915;52.540;13.604;2022-11-09T00:48:06;2.30;;;2.10;;
31282;SDS011;17915;52.540;13.604;2022-11-09T00:50:31;4.63;;;3.30;;
31282;SDS011;17915;52.540;13.604;2022-11-09T00:52:57;5.43;;;2.50;;
31282;SDS011;17915;52.540;13.604;2022-11-09T00:55:23;3.33;;;2.40;;
31282;SDS011;17915;52.540;13.604;2022-11-09T00:57:49;4.47;;;2.20;;
31282;SDS011;17915;52.540;13.604;2022-11-09T01:00:19;2.60;;;2.40;;
31282;SDS011;17915;52.540;13.604;2022-11-09T01:02:45;3.85;;;2.47;;
31282;SDS011;17915;52.540;13.604;2022-11-09T01:05:11;3.43;;;2.40;;
31282;SDS011;17915;52.540;13.604;2022-11-09T01:07:37;3.83;;;2.73;;
31282;SDS011;17915;52.540;13.604;2022-11-09T01:10:03;3.38;;;2.30;;
31282;SDS011;17915;52.540;13.604;2022-11-09T01:12:29;2.80;;;2.60;;
31282;SDS011;17915;52.540;13.604;2022-11-09T01:14:55;7.83;;;2.63;;
31282;SDS011;17915;52.540;13.604;2022-11-09T01:17:20;1.93;;;1.83;;
31282;SDS011;17915;52.540;13.604;2022-11-09T01:19:46;8.02;;;2.65;;
31282;SDS011;17915;52.540;13.604;2022-11-09T01:22:11;5.00;;;2.70;;
31282;SDS011;17915;52.540;13.604;2022-11-09T01:24:37;3.53;;;2.03;;
31282;SDS011;17915;52.540;13.604;2022-11-09T01:27:02;10.07;;;2.37;;
31282;SDS011;17915;52.540;13.604;2022-11-09T01:29:28;3.57;;;2.20;;
31282;SDS011;17915;52.540;13.604;2022-11-09T01:31:53;3.77;;;1.90;;
31282;SDS011;17915;52.540;13.604;2022-11-09T01:34:19;5.10;;;2.85;;
31282;SDS011;17915;52.540;13.604;2022-11-09T01:36:45;5.93;;;2.37;;
31282;SDS011;17915;52.540;13.604;2022-11-09T01:39:10;2.60;;;2.20;;
31282;SDS011;17915;52.540;13.604;2022-11-09T01:41:35;4.60;;;2.20;;
31282;SDS011;17915;52.540;13.604;2022-11-09T01:44:05;2.20;;;2.10;;
31282;SDS011;17915;52.540;13.604;2022-11-09T01:49:20;4.75;;;2.30;;
31282;SDS011;17915;52.540;13.604;2022-11-09T01:51:49;1.85;;;1.75;;
31282;SDS011;17915;52.540;13.604;2022-11-09T01:54:25;2.30;;;2.20;;
31282;SDS011;17915;52.540;13.604;2022-11-09T01:56:53;2.70;;;2.50;;
31282;SDS011;17915;52.540;13.604;2022-11-09T01:59:23;3.22;;;2.85;;
31282;SDS011;17915;52.540;13.604;2022-11-09T02:01:51;3.30;;;2.10;;
31282;SDS011;17915;52.540;13.604;2022-11-09T02:04:24;2.42;;;2.22;;
31282;SDS011;17915;52.540;13.604;2022-11-09T02:06:52;3.45;;;3.10;;
31282;SDS011;17915;52.540;13.604;2022-11-09T02:12:03;2.55;;;2.38;;
31282;SDS011;17915;52.540;13.604;2022-11-09T02:14:29;2.45;;;2.25;;
31282;SDS011;17915;52.540;13.604;2022-11-09T02:16:56;4.18;;;2.85;;
31282;SDS011;17915;52.540;13.604;2022-11-09T02:19:22;2.43;;;2.23;;
31282;SDS011;17915;52.540;13.604;2022-11-09T02:21:47;5.10;;;3.27;;
31282;SDS011;17915;52.540;13.604;2022-11-09T02:24:13;3.77;;;3.57;;
31282;SDS011;17915;52.540;13.604;2022-11-09T02:29:08;3.63;;;2.42;;
31282;SDS011;17915;52.540;13.604;2022-11-09T02:31:37;4.28;;;2.70;;
31282;SDS011;17915;52.540;13.604;2022-11-09T02:34:13;2.63;;;2.53;;
31282;SDS011;17915;52.540;13.604;2022-11-09T02:36:40;3.88;;;2.35;;
31282;SDS011;17915;52.540;13.604;2022-11-09T02:41:32;5.28;;;3.28;;
31282;SDS011;17915;52.540;13.604;2022-11-09T02:44:00;6.10;;;2.53;;
31282;SDS011;17915;52.540;13.604;2022-11-09T02:46:35;3.27;;;2.40;;
31282;SDS011;17915;52.540;13.604;2022-11-09T02:49:01;7.15;;;2.33;;
31282;SDS011;17915;52.540;13.604;2022-11-09T02:51:27;3.83;;;3.53;;
31282;SDS011;17915;52.540;13.604;2022-11-09T02:53:53;2.08;;;1.98;;
31282;SDS011;17915;52.540;13.604;2022-11-09T02:56:18;2.37;;;1.80;;
31282;SDS011;17915;52.540;13.604;2022-11-09T02:58:44;3.40;;;2.50;;
31282;SDS011;17915;52.540;13.604;2022-11-09T03:01:09;3.27;;;2.63;;
31282;SDS011;17915;52.540;13.604;2022-11-09T03:03:35;4.73;;;1.90;;
31282;SDS011;17915;52.540;13.604;2022-11-09T03:06:00;2.50;;;2.07;;
31282;SDS011;17915;52.540;13.604;2022-11-09T03:08:25;2.23;;;2.10;;
31282;SDS011;17915;52.540;13.604;2022-11-09T03:10:51;2.73;;;2.53;;
31282;SDS011;17915;52.540;13.604;2022-11-09T03:13:16;3.37;;;2.53;;
31282;SDS011;17915;52.540;13.604;2022-11-09T03:15:41;4.70;;;2.67;;
31282;SDS011;17915;52.540;13.604;2022-11-09T03:18:07;2.63;;;2.43;;
31282;SDS011;17915;52.540;13.604;2022-11-09T03:20:32;2.50;;;2.27;;
31282;SDS011;17915;52.540;13.604;2022-11-09T03:22:58;3.83;;;2.60;;
31282;SDS011;17915;52.540;13.604;2022-11-09T03:25:24;2.42;;;2.22;;
31282;SDS011;17915;52.540;13.604;2022-11-09T03:27:55;5.13;;;3.10;;
31282;SDS011;17915;52.540;13.604;2022-11-09T03:30:21;4.10;;;2.55;;
31282;SDS011;17915;52.540;13.604;2022-11-09T03:32:46;3.43;;;2.80;;
31282;SDS011;17915;52.540;13.604;2022-11-09T03:35:12;3.33;;;2.70;;
31282;SDS011;17915;52.540;13.604;2022-11-09T03:37:37;8.70;;;2.50;;
31282;SDS011;17915;52.540;13.604;2022-11-09T03:40:03;6.60;;;2.40;;
31282;SDS011;17915;52.540;13.604;2022-11-09T03:42:28;8.17;;;2.97;;
31282;SDS011;17915;52.540;13.604;2022-11-09T03:44:54;7.23;;;2.40;;
31282;SDS011;17915;52.540;13.604;2022-11-09T03:47:19;3.63;;;3.33;;
31282;SDS011;17915;52.540;13.604;2022-11-09T03:49:45;3.63;;;2.37;;
31282;SDS011;17915;52.540;13.604;2022-11-09T03:52:10;3.27;;;3.07;;
31282;SDS011;17915;52.540;13.604;2022-11-09T03:54:35;2.60;;;2.40;;
31282;SDS011;17915;52.540;13.604;2022-11-09T03:57:01;3.17;;;2.87;;
31282;SDS011;17915;52.540;13.604;2022-11-09T03:59:26;2.87;;;2.63;;
31282;SDS011;17915;52.540;13.604;2022-11-09T04:01:51;5.77;;;2.53;;
31282;SDS011;17915;52.540;13.604;2022-11-09T04:04:17;2.90;;;2.63;;
31282;SDS011;17915;52.540;13.604;2022-11-09T04:06:42;13.93;;;3.67;;
31282;SDS011;17915;52.540;13.604;2022-11-09T04:09:08;2.90;;;2.53;;
31282;SDS011;17915;52.540;13.604;2022-11-09T04:11:34;2.78;;;2.55;;
31282;SDS011;17915;52.540;13.604;2022-11-09T04:13:59;3.43;;;3.00;;
31282;SDS011;17915;52.540;13.604;2022-11-09T04:16:24;4.60;;;3.27;;
31282;SDS011;17915;52.540;13.604;2022-11-09T04:18:50;9.30;;;3.33;;
31282;SDS011;17915;52.540;13.604;2022-11-09T04:21:15;6.83;;;2.20;;
31282;SDS011;17915;52.540;13.604;2022-11-09T04:23:41;2.97;;;2.77;;
31282;SDS011;17915;52.540;13.604;2022-11-09T04:26:06;6.30;;;2.53;;
31282;SDS011;17915;52.540;13.604;2022-11-09T04:28:31;2.47;;;2.23;;
31282;SDS011;17915;52.540;13.604;2022-11-09T04:31:00;2.60;;;2.43;;
31282;SDS011;17915;52.540;13.604;2022-11-09T04:33:26;6.20;;;3.22;;
31282;SDS011;17915;52.540;13.604;2022-11-09T04:35:52;3.63;;;3.25;;
31282;SDS011;17915;52.540;13.604;2022-11-09T04:38:17;3.97;;;2.43;;
31282;SDS011;17915;52.540;13.604;2022-11-09T04:40:42;2.77;;;2.57;;
31282;SDS011;17915;52.540;13.604;2022-11-09T04:43:11;3.37;;;3.03;;
31282;SDS011;17915;52.540;13.604;2022-11-09T04:45:37;5.45;;;2.67;;
31282;SDS011;17915;52.540;13.604;2022-11-09T04:48:03;3.00;;;2.80;;
31282;SDS011;17915;52.540;13.604;2022-11-09T04:50:30;5.10;;;2.72;;
31282;SDS011;17915;52.540;13.604;2022-11-09T04:53:03;2.85;;;2.47;;
31282;SDS011;17915;52.540;13.604;2022-11-09T04:55:30;2.92;;;2.20;;
31282;SDS011;17915;52.540;13.604;2022-11-09T04:57:55;2.67;;;2.47;;
31282;SDS011;17915;52.540;13.604;2022-11-09T05:00:20;3.33;;;3.13;;
31282;SDS011;17915;52.540;13.604;2022-11-09T05:02:46;2.97;;;2.77;;
31282;SDS011;17915;52.540;13.604;2022-11-09T05:05:11;3.27;;;2.97;;
31282;SDS011;17915;52.540;13.604;2022-11-09T05:07:36;10.10;;;2.63;;
31282;SDS011;17915;52.540;13.604;2022-11-09T05:10:02;7.43;;;2.87;;
31282;SDS011;17915;52.540;13.604;2022-11-09T05:12:27;6.43;;;3.30;;
31282;SDS011;17915;52.540;13.604;2022-11-09T05:14:52;3.57;;;2.77;;
31282;SDS011;17915;52.540;13.604;2022-11-09T05:17:18;3.17;;;2.97;;
31282;SDS011;17915;52.540;13.604;2022-11-09T05:19:43;3.33;;;2.90;;
31282;SDS011;17915;52.540;13.604;2022-11-09T05:22:08;3.50;;;3.23;;
31282;SDS011;17915;52.540;13.604;2022-11-09T05:24:52;3.17;;;2.75;;
31282;SDS011;17915;52.540;13.604;2022-11-09T05:27:18;3.83;;;2.87;;
31282;SDS011;17915;52.540;13.604;2022-11-09T05:29:43;5.40;;;3.10;;
31282;SDS011;17915;52.540;13.604;2022-11-09T05:32:09;5.97;;;3.50;;
31282;SDS011;17915;52.540;13.604;2022-11-09T05:34:34;8.90;;;5.63;;
31282;SDS011;17915;52.540;13.604;2022-11-09T05:36:59;8.13;;;3.67;;
31282;SDS011;17915;52.540;13.604;2022-11-09T05:39:25;8.83;;;3.10;;
31282;SDS011;17915;52.540;13.604;2022-11-09T05:41:50;3.57;;;2.83;;
31282;SDS011;17915;52.540;13.604;2022-11-09T05:44:15;4.40;;;3.93;;
31282;SDS011;17915;52.540;13.604;2022-11-09T05:46:41;6.27;;;2.50;;
31282;SDS011;17915;52.540;13.604;2022-11-09T05:49:06;5.60;;;3.37;;
31282;SDS011;17915;52.540;13.604;2022-11-09T05:51:32;5.77;;;3.40;;
31282;SDS011;17915;52.540;13.604;2022-11-09T05:53:57;7.03;;;4.67;;
31282;SDS011;17915;52.540;13.604;2022-11-09T05:56:22;5.13;;;4.33;;
31282;SDS011;17915;52.540;13.604;2022-11-09T05:58:48;5.20;;;3.57;;
31282;SDS011;17915;52.540;13.604;2022-11-09T06:01:14;3.30;;;3.00;;
31282;SDS011;17915;52.540;13.604;2022-11-09T06:03:41;3.72;;;2.78;;
31282;SDS011;17915;52.540;13.604;2022-11-09T06:06:09;4.70;;;3.75;;
31282;SDS011;17915;52.540;13.604;2022-11-09T06:08:35;6.32;;;3.90;;
31282;SDS011;17915;52.540;13.604;2022-11-09T06:11:02;5.80;;;3.60;;
31282;SDS011;17915;52.540;13.604;2022-11-09T06:13:29;3.15;;;2.88;;
31282;SDS011;17915;52.540;13.604;2022-11-09T06:15:55;4.70;;;3.70;;
31282;SDS011;17915;52.540;13.604;2022-11-09T06:18:22;8.43;;;4.13;;
31282;SDS011;17915;52.540;13.604;2022-11-09T06:20:52;5.78;;;4.15;;
31282;SDS011;17915;52.540;13.604;2022-11-09T06:23:18;4.72;;;4.10;;
31282;SDS011;17915;52.540;13.604;2022-11-09T06:25:49;10.13;;;3.67;;
31282;SDS011;17915;52.540;13.604;2022-11-09T06:28:15;4.63;;;3.40;;
31282;SDS011;17915;52.540;13.604;2022-11-09T06:30:40;3.90;;;3.47;;
31282;SDS011;17915;52.540;13.604;2022-11-09T06:33:05;5.40;;;3.73;;
31282;SDS011;17915;52.540;13.604;2022-11-09T06:35:31;3.37;;;3.03;;
31282;SDS011;17915;52.540;13.604;2022-11-09T06:37:56;11.00;;;3.53;;
31282;SDS011;17915;52.540;13.604;2022-11-09T06:40:23;9.45;;;3.40;;
31282;SDS011;17915;52.540;13.604;2022-11-09T06:42:48;4.20;;;3.87;;
31282;SDS011;17915;52.540;13.604;2022-11-09T06:45:13;6.73;;;3.80;;
31282;SDS011;17915;52.540;13.604;2022-11-09T06:47:39;5.93;;;4.33;;
31282;SDS011;17915;52.540;13.604;2022-11-09T06:50:04;3.37;;;3.00;;
31282;SDS011;17915;52.540;13.604;2022-11-09T06:52:30;4.87;;;4.13;;
31282;SDS011;17915;52.540;13.604;2022-11-09T06:54:55;3.80;;;3.27;;
31282;SDS011;17915;52.540;13.604;2022-11-09T06:57:21;7.57;;;3.67;;
31282;SDS011;17915;52.540;13.604;2022-11-09T06:59:46;3.33;;;2.83;;
31282;SDS011;17915;52.540;13.604;2022-11-09T07:02:13;4.03;;;3.38;;
31282;SDS011;17915;52.540;13.604;2022-11-09T07:04:41;3.53;;;3.05;;
31282;SDS011;17915;52.540;13.604;2022-11-09T07:07:07;6.10;;;3.07;;
31282;SDS011;17915;52.540;13.604;2022-11-09T07:09:32;3.77;;;3.33;;
31282;SDS011;17915;52.540;13.604;2022-11-09T07:11:57;3.90;;;3.40;;
31282;SDS011;17915;52.540;13.604;2022-11-09T07:14:24;3.97;;;2.88;;
31282;SDS011;17915;52.540;13.604;2022-11-09T07:16:49;4.33;;;3.93;;
31282;SDS011;17915;52.540;13.604;2022-11-09T07:19:14;4.97;;;4.50;;
31282;SDS011;17915;52.540;13.604;2022-11-09T07:21:40;3.77;;;3.00;;
31282;SDS011;17915;52.540;13.604;2022-11-09T07:24:05;6.57;;;3.60;;
31282;SDS011;17915;52.540;13.604;2022-11-09T07:26:31;3.57;;;3.37;;
31282;SDS011;17915;52.540;13.604;2022-11-09T07:28:56;4.00;;;2.93;;
31282;SDS011;17915;52.540;13.604;2022-11-09T07:31:21;7.43;;;4.60;;
31282;SDS011;17915;52.540;13.604;2022-11-09T07:33:48;5.80;;;3.40;;
31282;SDS011;17915;52.540;13.604;2022-11-09T07:36:14;11.88;;;4.93;;
31282;SDS011;17915;52.540;13.604;2022-11-09T07:38:39;9.00;;;4.87;;
31282;SDS011;17915;52.540;13.604;2022-11-09T07:41:05;4.47;;;4.10;;
31282;SDS011;17915;52.540;13.604;2022-11-09T07:43:30;4.17;;;3.43;;
31282;SDS011;17915;52.540;13.604;2022-11-09T07:45:56;5.07;;;3.77;;
31282;SDS011;17915;52.540;13.604;2022-11-09T07:48:21;15.90;;;5.73;;
31282;SDS011;17915;52.540;13.604;2022-11-09T07:50:47;4.70;;;2.83;;
31282;SDS011;17915;52.540;13.604;2022-11-09T07:53:13;8.67;;;3.83;;
31282;SDS011;17915;52.540;13.604;2022-11-09T07:55:39;5.45;;;3.10;;
31282;SDS011;17915;52.540;13.604;2022-11-09T07:58:06;7.32;;;3.85;;
31282;SDS011;17915;52.540;13.604;2022-11-09T08:00:36;4.57;;;3.75;;
31282;SDS011;17915;52.540;13.604;2022-11-09T08:03:03;5.47;;;4.07;;
31282;SDS011;17915;52.540;13.604;2022-11-09T08:05:28;5.88;;;3.88;;
31282;SDS011;17915;52.540;13.604;2022-11-09T08:07:58;5.03;;;3.77;;
31282;SDS011;17915;52.540;13.604;2022-11-09T08:10:25;6.28;;;3.70;;
31282;SDS011;17915;52.540;13.604;2022-11-09T08:12:52;6.25;;;3.53;;
31282;SDS011;17915;52.540;13.604;2022-11-09T08:15:18;8.15;;;4.05;;
31282;SDS011;17915;52.540;13.604;2022-11-09T08:17:44;5.83;;;3.77;;
31282;SDS011;17915;52.540;13.604;2022-11-09T08:20:09;6.93;;;3.70;;
31282;SDS011;17915;52.540;13.604;2022-11-09T08:22:39;4.60;;;3.67;;
31282;SDS011;17915;52.540;13.604;2022-11-09T08:25:06;8.02;;;3.97;;
31282;SDS011;17915;52.540;13.604;2022-11-09T08:27:31;7.53;;;3.67;;
31282;SDS011;17915;52.540;13.604;2022-11-09T08:30:04;17.13;;;5.40;;
31282;SDS011;17915;52.540;13.604;2022-11-09T08:32:35;7.00;;;4.13;;
31282;SDS011;17915;52.540;13.604;2022-11-09T08:35:01;4.57;;;4.17;;
31282;SDS011;17915;52.540;13.604;2022-11-09T08:37:26;13.38;;;3.92;;
31282;SDS011;17915;52.540;13.604;2022-11-09T08:39:52;3.63;;;3.33;;
31282;SDS011;17915;52.540;13.604;2022-11-09T08:42:17;7.17;;;3.90;;
31282;SDS011;17915;52.540;13.604;2022-11-09T08:44:42;4.63;;;3.97;;
31282;SDS011;17915;52.540;13.604;2022-11-09T08:47:08;4.07;;;3.67;;
31282;SDS011;17915;52.540;13.604;2022-11-09T08:49:33;6.47;;;3.57;;
31282;SDS011;17915;52.540;13.604;2022-11-09T08:51:59;9.83;;;4.60;;
31282;SDS011;17915;52.540;13.604;2022-11-09T08:54:25;3.95;;;3.58;;
31282;SDS011;17915;52.540;13.604;2022-11-09T08:56:53;4.70;;;4.07;;
31282;SDS011;17915;52.540;13.604;2022-11-09T08:59:19;4.15;;;3.75;;
31282;SDS011;17915;52.540;13.604;2022-11-09T09:01:44;5.30;;;3.57;;
31282;SDS011;17915;52.540;13.604;2022-11-09T09:04:10;6.33;;;4.10;;
31282;SDS011;17915;52.540;13.604;2022-11-09T09:06:35;4.77;;;4.37;;
31282;SDS011;17915;52.540;13.604;2022-11-09T09:09:00;8.13;;;3.90;;
31282;SDS011;17915;52.540;13.604;2022-11-09T09:11:26;6.87;;;4.63;;
31282;SDS011;17915;52.540;13.604;2022-11-09T09:13:51;6.33;;;4.10;;
31282;SDS011;17915;52.540;13.604;2022-11-09T09:16:16;6.70;;;4.23;;
31282;SDS011;17915;52.540;13.604;2022-11-09T09:18:42;4.63;;;4.23;;
31282;SDS011;17915;52.540;13.604;2022-11-09T09:21:08;4.27;;;3.50;;
31282;SDS011;17915;52.540;13.604;2022-11-09T09:23:33;4.13;;;3.35;;
31282;SDS011;17915;52.540;13.604;2022-11-09T09:25:59;7.83;;;4.33;;
31282;SDS011;17915;52.540;13.604;2022-11-09T09:28:24;3.60;;;3.33;;
31282;SDS011;17915;52.540;13.604;2022-11-09T09:30:50;4.37;;;3.97;;
31282;SDS011;17915;52.540;13.604;2022-11-09T09:33:16;6.32;;;3.33;;
31282;SDS011;17915;52.540;13.604;2022-11-09T09:35:41;4.87;;;4.20;;
31282;SDS011;17915;52.540;13.604;2022-11-09T09:38:07;5.00;;;4.40;;
31282;SDS011;17915;52.540;13.604;2022-11-09T09:40:33;5.07;;;4.20;;
31282;SDS011;17915;52.540;13.604;2022-11-09T09:43:02;7.43;;;3.60;;
31282;SDS011;17915;52.540;13.604;2022-11-09T09:45:31;4.13;;;3.83;;
31282;SDS011;17915;52.540;13.604;2022-11-09T09:48:13;7.60;;;3.55;;
31282;SDS011;17915;52.540;13.604;2022-11-09T09:50:46;3.72;;;3.22;;
31282;SDS011;17915;52.540;13.604;2022-11-09T09:53:16;4.78;;;3.95;;
31282;SDS011;17915;52.540;13.604;2022-11-09T09:55:48;5.75;;;4.10;;
31282;SDS011;17915;52.540;13.604;2022-11-09T09:58:19;4.28;;;3.88;;
31282;SDS011;17915;52.540;13.604;2022-11-09T10:01:02;3.60;;;3.35;;
31282;SDS011;17915;52.540;13.604;2022-11-09T10:03:37;11.32;;;5.10;;
31282;SDS011;17915;52.540;13.604;2022-11-09T10:22:19;4.57;;;4.18;;
31282;SDS011;17915;52.540;13.604;2022-11-09T10:27:35;4.28;;;3.88;;
31282;SDS011;17915;52.540;13.604;2022-11-09T10:30:12;14.45;;;4.68;;
31282;SDS011;17915;52.540;13.604;2022-11-09T10:32:39;6.82;;;5.20;;
31282;SDS011;17915;52.540;13.604;2022-11-09T10:37:44;5.95;;;4.10;;
31282;SDS011;17915;52.540;13.604;2022-11-09T10:40:15;6.05;;;4.20;;
31282;SDS011;17915;52.540;13.604;2022-11-09T10:42:49;7.28;;;4.78;;
31282;SDS011;17915;52.540;13.604;2022-11-09T10:48:00;5.32;;;3.78;;
31282;SDS011;17915;52.540;13.604;2022-11-09T10:53:18;4.97;;;4.22;;
31282;SDS011;17915;52.540;13.604;2022-11-09T10:55:55;8.65;;;5.13;;
31282;SDS011;17915;52.540;13.604;2022-11-09T10:58:26;4.68;;;3.90;;
31282;SDS011;17915;52.540;13.604;2022-11-09T11:03:27;5.70;;;4.10;;
31282;SDS011;17915;52.540;13.604;2022-11-09T11:05:58;4.43;;;3.58;;
31282;SDS011;17915;52.540;13.604;2022-11-09T11:08:26;8.95;;;3.35;;
31282;SDS011;17915;52.540;13.604;2022-11-09T11:11:06;3.35;;;2.90;;
31282;SDS011;17915;52.540;13.604;2022-11-09T11:13:38;3.45;;;3.08;;
31282;SDS011;17915;52.540;13.604;2022-11-09T11:16:46;3.43;;;3.13;;
31282;SDS011;17915;52.540;13.604;2022-11-09T11:18:53;6.28;;;5.22;;
31282;SDS011;17915;52.540;13.604;2022-11-09T11:21:20;3.97;;;3.63;;
31282;SDS011;17915;52.540;13.604;2022-11-09T11:26:39;3.75;;;3.38;;
31282;SDS011;17915;52.540;13.604;2022-11-09T11:29:16;8.23;;;3.60;;
31282;SDS011;17915;52.540;13.604;2022-11-09T11:31:58;3.53;;;3.13;;
31282;SDS011;17915;52.540;13.604;2022-11-09T11:34:23;3.10;;;2.83;;
31282;SDS011;17915;52.540;13.604;2022-11-09T11:47:24;4.10;;;3.25;;
31282;SDS011;17915;52.540;13.604;2022-11-09T11:49:56;3.10;;;2.83;;
31282;SDS011;17915;52.540;13.604;2022-11-09T11:57:50;3.17;;;2.83;;
31282;SDS011;17915;52.540;13.604;2022-11-09T12:00:49;3.35;;;3.05;;
31282;SDS011;17915;52.540;13.604;2022-11-09T12:23:37;7.05;;;2.88;;
31282;SDS011;17915;52.540;13.604;2022-11-09T12:36:46;20.95;;;7.55;;
31282;SDS011;17915;52.540;13.604;2022-11-09T12:41:47;2.97;;;2.67;;
31282;SDS011;17915;52.540;13.604;2022-11-09T12:46:45;3.40;;;3.08;;
31282;SDS011;17915;52.540;13.604;2022-11-09T12:49:30;3.92;;;2.72;;
31282;SDS011;17915;52.540;13.604;2022-11-09T12:52:03;7.43;;;2.83;;
31282;SDS011;17915;52.540;13.604;2022-11-09T12:54:30;3.55;;;2.80;;
31282;SDS011;17915;52.540;13.604;2022-11-09T12:57:20;13.00;;;5.33;;
31282;SDS011;17915;52.540;13.604;2022-11-09T12:59:48;2.40;;;2.30;;
31282;SDS011;17915;52.540;13.604;2022-11-09T13:02:34;2.00;;;1.90;;
31282;SDS011;17915;52.540;13.604;2022-11-09T13:05:06;2.53;;;2.13;;
31282;SDS011;17915;52.540;13.604;2022-11-09T13:07:45;2.83;;;2.63;;
31282;SDS011;17915;52.540;13.604;2022-11-09T13:10:22;2.38;;;2.10;;
31282;SDS011;17915;52.540;13.604;2022-11-09T13:15:37;3.20;;;2.70;;
31282;SDS011;17915;52.540;13.604;2022-11-09T13:20:49;5.03;;;2.78;;
31282;SDS011;17915;52.540;13.604;2022-11-09T13:25:50;1.70;;;1.60;;
31282;SDS011;17915;52.540;13.604;2022-11-09T13:30:54;3.33;;;2.80;;
31282;SDS011;17915;52.540;13.604;2022-11-09T13:33:26;3.75;;;2.58;;
31282;SDS011;17915;52.540;13.604;2022-11-09T13:38:24;5.90;;;3.00;;
31282;SDS011;17915;52.540;13.604;2022-11-09T13:40:59;2.05;;;1.92;;
31282;SDS011;17915;52.540;13.604;2022-11-09T13:43:48;2.20;;;2.10;;
31282;SDS011;17915;52.540;13.604;2022-11-09T13:46:33;3.92;;;1.75;;
31282;SDS011;17915;52.540;13.604;2022-11-09T13:49:02;6.63;;;2.53;;
31282;SDS011;17915;52.540;13.604;2022-11-09T13:53:59;2.35;;;2.15;;
31282;SDS011;17915;52.540;13.604;2022-11-09T14:04:22;3.03;;;1.70;;
31282;SDS011;17915;52.540;13.604;2022-11-09T14:06:58;2.40;;;2.00;;
31282;SDS011;17915;52.540;13.604;2022-11-09T14:09:24;5.95;;;1.88;;
31282;SDS011;17915;52.540;13.604;2022-11-09T14:11:55;1.77;;;1.67;;
31282;SDS011;17915;52.540;13.604;2022-11-09T14:20:40;2.00;;;1.70;;
31282;SDS011;17915;52.540;13.604;2022-11-09T14:23:27;2.25;;;2.15;;
31282;SDS011;17915;52.540;13.604;2022-11-09T14:25:54;2.17;;;1.98;;
31282;SDS011;17915;52.540;13.604;2022-11-09T14:28:26;2.92;;;2.30;;
31282;SDS011;17915;52.540;13.604;2022-11-09T14:30:53;2.72;;;2.13;;
31282;SDS011;17915;52.540;13.604;2022-11-09T14:35:47;3.63;;;2.85;;
31282;SDS011;17915;52.540;13.604;2022-11-09T14:38:34;3.90;;;2.03;;
31282;SDS011;17915;52.540;13.604;2022-11-09T14:40:59;2.65;;;2.45;;
31282;SDS011;17915;52.540;13.604;2022-11-09T14:43:26;2.37;;;1.73;;
31282;SDS011;17915;52.540;13.604;2022-11-09T14:45:54;2.42;;;2.22;;
31282;SDS011;17915;52.540;13.604;2022-11-09T14:48:21;2.58;;;2.42;;
31282;SDS011;17915;52.540;13.604;2022-11-09T14:50:47;6.38;;;1.88;;
31282;SDS011;17915;52.540;13.604;2022-11-09T14:53:14;3.60;;;3.28;;
31282;SDS011;17915;52.540;13.604;2022-11-09T14:55:40;5.68;;;3.00;;
31282;SDS011;17915;52.540;13.604;2022-11-09T14:58:10;2.70;;;2.33;;
31282;SDS011;17915;52.540;13.604;2022-11-09T15:00:37;2.83;;;2.40;;
31282;SDS011;17915;52.540;13.604;2022-11-09T15:05:46;3.60;;;2.85;;
31282;SDS011;17915;52.540;13.604;2022-11-09T15:08:13;4.97;;;3.03;;
31282;SDS011;17915;52.540;13.604;2022-11-09T15:10:40;8.48;;;3.80;;
31282;SDS011;17915;52.540;13.604;2022-11-09T15:13:13;11.82;;;3.55;;
31282;SDS011;17915;52.540;13.604;2022-11-09T15:15:38;4.10;;;3.63;;
31282;SDS011;17915;52.540;13.604;2022-11-09T15:18:04;5.80;;;3.47;;
31282;SDS011;17915;52.540;13.604;2022-11-09T15:20:31;7.10;;;4.57;;
31282;SDS011;17915;52.540;13.604;2022-11-09T15:22:59;3.88;;;3.17;;
31282;SDS011;17915;52.540;13.604;2022-11-09T15:30:47;5.25;;;3.10;;
31282;SDS011;17915;52.540;13.604;2022-11-09T15:38:41;4.43;;;4.05;;
31282;SDS011;17915;52.540;13.604;2022-11-09T15:41:12;4.47;;;4.07;;
31282;SDS011;17915;52.540;13.604;2022-11-09T15:43:38;5.25;;;3.00;;
31282;SDS011;17915;52.540;13.604;2022-11-09T15:46:04;4.90;;;3.73;;
31282;SDS011;17915;52.540;13.604;2022-11-09T15:48:30;4.28;;;3.88;;
31282;SDS011;17915;52.540;13.604;2022-11-09T15:50:56;4.53;;;4.10;;
31282;SDS011;17915;52.540;13.604;2022-11-09T15:53:21;52.13;;;15.37;;
31282;SDS011;17915;52.540;13.604;2022-11-09T15:55:47;30.10;;;10.55;;
31282;SDS011;17915;52.540;13.604;2022-11-09T15:58:13;18.90;;;8.02;;
31282;SDS011;17915;52.540;13.604;2022-11-09T16:00:40;11.18;;;4.57;;
31282;SDS011;17915;52.540;13.604;2022-11-09T16:03:05;7.40;;;5.55;;
31282;SDS011;17915;52.540;13.604;2022-11-09T16:05:31;8.25;;;4.97;;
31282;SDS011;17915;52.540;13.604;2022-11-09T16:07:56;4.63;;;4.23;;
31282;SDS011;17915;52.540;13.604;2022-11-09T16:10:22;5.73;;;5.23;;
31282;SDS011;17915;52.540;13.604;2022-11-09T16:12:48;4.13;;;3.83;;
31282;SDS011;17915;52.540;13.604;2022-11-09T16:15:17;7.70;;;4.85;;
31282;SDS011;17915;52.540;13.604;2022-11-09T16:17:45;7.85;;;4.43;;
31282;SDS011;17915;52.540;13.604;2022-11-09T16:20:13;5.35;;;4.07;;
31282;SDS011;17915;52.540;13.604;2022-11-09T16:22:39;9.93;;;3.97;;
31282;SDS011;17915;52.540;13.604;2022-11-09T16:25:04;7.07;;;4.50;;
31282;SDS011;17915;52.540;13.604;2022-11-09T16:27:30;12.10;;;6.90;;
31282;SDS011;17915;52.540;13.604;2022-11-09T16:29:55;9.77;;;5.50;;
31282;SDS011;17915;52.540;13.604;2022-11-09T16:32:21;6.13;;;3.40;;
31282;SDS011;17915;52.540;13.604;2022-11-09T16:34:46;11.47;;;4.73;;
31282;SDS011;17915;52.540;13.604;2022-11-09T16:37:11;6.10;;;4.20;;
31282;SDS011;17915;52.540;13.604;2022-11-09T16:39:37;6.30;;;5.03;;
31282;SDS011;17915;52.540;13.604;2022-11-09T16:42:06;14.23;;;4.63;;
31282;SDS011;17915;52.540;13.604;2022-11-09T16:44:33;9.00;;;6.30;;
31282;SDS011;17915;52.540;13.604;2022-11-09T16:47:04;6.07;;;5.45;;
31282;SDS011;17915;52.540;13.604;2022-11-09T16:49:31;6.68;;;4.85;;
31282;SDS011;17915;52.540;13.604;2022-11-09T16:51:57;7.07;;;5.33;;
31282;SDS011;17915;52.540;13.604;2022-11-09T16:54:22;8.37;;;6.37;;
31282;SDS011;17915;52.540;13.604;2022-11-09T16:56:48;10.30;;;5.90;;